sensor_id;sensor_type;location;lat;lon;timestamp;pressure;altitude;pressure_sealevel;temperature;humidity
68193;BME280;55012;47.562;18.414;2023-10-13T00:00:37;99381.78;;;17.37;100.00
68193;BME280;55012;47.562;18.414;2023-10-13T00:03:06;99383.38;;;17.38;100.00
68193;BME280;55012;47.562;18.414;2023-10-13T00:05:33;99387.28;;;17.45;100.00
68193;BME280;55012;47.562;18.414;2023-10-13T00:08:00;99384.97;;;17.50;100.00
68193;BME280;55012;47.562;18.414;2023-10-13T00:10:29;99391.25;;;17.58;100.00
68193;BME280;55012;47.562;18.414;2023-10-13T00:12:55;99383.47;;;17.71;100.00
68193;BME280;55012;47.562;18.414;2023-10-13T00:15:41;99399.09;;;17.77;100.00
68193;BME280;55012;47.562;18.414;2023-10-13T00:18:29;99413.56;;;17.78;100.00
68193;BME280;55012;47.562;18.414;2023-10-13T00:21:02;99422.56;;;17.71;100.00
68193;BME280;55012;47.562;18.414;2023-10-13T00:23:51;99431.47;;;17.61;100.00
68193;BME280;55012;47.562;18.414;2023-10-13T00:26:20;99430.28;;;17.48;100.00
68193;BME280;55012;47.562;18.414;2023-10-13T00:28:52;99430.63;;;17.35;100.00
68193;BME280;55012;47.562;18.414;2023-10-13T00:31:25;99424.31;;;17.17;100.00
68193;BME280;55012;47.562;18.414;2023-10-13T00:34:02;99421.94;;;17.08;100.00
68193;BME280;55012;47.562;18.414;2023-10-13T00:36:51;99412.13;;;17.04;100.00
68193;BME280;55012;47.562;18.414;2023-10-13T00:39:36;99408.25;;;17.05;100.00
68193;BME280;55012;47.562;18.414;2023-10-13T00:42:05;99393.00;;;17.04;100.00
68193;BME280;55012;47.562;18.414;2023-10-13T00:44:43;99375.06;;;17.06;100.00
68193;BME280;55012;47.562;18.414;2023-10-13T00:47:13;99361.41;;;17.10;100.00
68193;BME280;55012;47.562;18.414;2023-10-13T00:49:47;99353.59;;;17.12;100.00
68193;BME280;55012;47.562;18.414;2023-10-13T00:52:14;99354.00;;;17.10;100.00
68193;BME280;55012;47.562;18.414;2023-10-13T00:54:41;99356.69;;;17.03;100.00
68193;BME280;55012;47.562;18.414;2023-10-13T00:57:13;99356.66;;;16.93;100.00
68193;BME280;55012;47.562;18.414;2023-10-13T00:59:57;99355.44;;;16.83;100.00
68193;BME280;55012;47.562;18.414;2023-10-13T01:02:23;99331.66;;;16.80;100.00
68193;BME280;55012;47.562;18.414;2023-10-13T01:05:02;99299.63;;;16.84;100.00
68193;BME280;55012;47.562;18.414;2023-10-13T01:07:28;99279.38;;;16.89;100.00
68193;BME280;55012;47.562;18.414;2023-10-13T01:09:54;99268.03;;;16.94;100.00
68193;BME280;55012;47.562;18.414;2023-10-13T01:12:20;99263.38;;;16.91;100.00
68193;BME280;55012;47.562;18.414;2023-10-13T01:14:49;99258.25;;;16.85;100.00
68193;BME280;55012;47.562;18.414;2023-10-13T01:17:14;99255.53;;;16.82;100.00
68193;BME280;55012;47.562;18.414;2023-10-13T01:19:39;99250.03;;;16.78;100.00
68193;BME280;55012;47.562;18.414;2023-10-13T01:22:08;99240.28;;;16.74;100.00
68193;BME280;55012;47.562;18.414;2023-10-13T01:24:34;99232.88;;;16.74;100.00
68193;BME280;55012;47.562;18.414;2023-10-13T01:27:04;99224.25;;;16.69;100.00
68193;BME280;55012;47.562;18.414;2023-10-13T01:29:50;99231.66;;;16.65;100.00
68193;BME280;55012;47.562;18.414;2023-10-13T01:32:23;99240.19;;;16.63;100.00
68193;BME280;55012;47.562;18.414;2023-10-13T01:34:49;99232.00;;;16.63;100.00
68193;BME280;55012;47.562;18.414;2023-10-13T01:37:19;99229.69;;;16.65;100.00
68193;BME280;55012;47.562;18.414;2023-10-13T01:39:45;99227.72;;;16.58;100.00
68193;BME280;55012;47.562;18.414;2023-10-13T01:42:13;99230.03;;;16.53;100.00
68193;BME280;55012;47.562;18.414;2023-10-13T01:44:45;99211.66;;;16.46;100.00
68193;BME280;55012;47.562;18.414;2023-10-13T01:47:10;99218.31;;;16.49;100.00
68193;BME280;55012;47.562;18.414;2023-10-13T01:49:38;99212.13;;;16.55;100.00
68193;BME280;55012;47.562;18.414;2023-10-13T01:52:23;99207.00;;;16.50;100.00
68193;BME280;55012;47.562;18.414;2023-10-13T01:54:50;99205.47;;;16.56;100.00
68193;BME280;55012;47.562;18.414;2023-10-13T01:57:16;99205.47;;;16.56;100.00
68193;BME280;55012;47.562;18.414;2023-10-13T01:59:49;99219.88;;;16.53;100.00
68193;BME280;55012;47.562;18.414;2023-10-13T02:02:15;99210.09;;;16.45;100.00
68193;BME280;55012;47.562;18.414;2023-10-13T02:04:45;99203.09;;;16.41;100.00
68193;BME280;55012;47.562;18.414;2023-10-13T02:07:26;99193.34;;;16.47;100.00
68193;BME280;55012;47.562;18.414;2023-10-13T02:10:00;99202.34;;;16.58;100.00
68193;BME280;55012;47.562;18.414;2023-10-13T02:12:31;99203.53;;;16.61;100.00
68193;BME280;55012;47.562;18.414;2023-10-13T02:15:10;99209.00;;;16.61;100.00
68193;BME280;55012;47.562;18.414;2023-10-13T02:17:38;99219.16;;;16.64;100.00
68193;BME280;55012;47.562;18.414;2023-10-13T02:20:07;99221.91;;;16.64;100.00
68193;BME280;55012;47.562;18.414;2023-10-13T02:22:39;99226.97;;;16.65;100.00
68193;BME280;55012;47.562;18.414;2023-10-13T02:25:16;99230.50;;;16.69;100.00
68193;BME280;55012;47.562;18.414;2023-10-13T02:27:43;99238.69;;;16.69;100.00
68193;BME280;55012;47.562;18.414;2023-10-13T02:30:09;99238.31;;;16.71;100.00
68193;BME280;55012;47.562;18.414;2023-10-13T02:32:48;99244.56;;;16.71;100.00
68193;BME280;55012;47.562;18.414;2023-10-13T02:35:14;99252.75;;;16.71;100.00
68193;BME280;55012;47.562;18.414;2023-10-13T02:37:42;99254.31;;;16.69;100.00
68193;BME280;55012;47.562;18.414;2023-10-13T02:40:11;99252.75;;;16.71;100.00
68193;BME280;55012;47.562;18.414;2023-10-13T02:42:36;99248.47;;;16.77;100.00
68193;BME280;55012;47.562;18.414;2023-10-13T02:45:02;99247.72;;;16.88;100.00
68193;BME280;55012;47.562;18.414;2023-10-13T02:47:29;99244.22;;;16.87;100.00
68193;BME280;55012;47.562;18.414;2023-10-13T02:49:57;99236.41;;;16.85;100.00
68193;BME280;55012;47.562;18.414;2023-10-13T02:52:26;99237.22;;;16.90;100.00
68193;BME280;55012;47.562;18.414;2023-10-13T02:54:52;99246.19;;;16.90;100.00
68193;BME280;55012;47.562;18.414;2023-10-13T02:57:17;99237.59;;;16.92;100.00
68193;BME280;55012;47.562;18.414;2023-10-13T02:59:44;99236.81;;;16.91;100.00
68193;BME280;55012;47.562;18.414;2023-10-13T03:02:14;99241.88;;;16.96;100.00
68193;BME280;55012;47.562;18.414;2023-10-13T03:04:52;99226.69;;;16.99;100.00
68193;BME280;55012;47.562;18.414;2023-10-13T03:07:39;99208.72;;;16.98;100.00
68193;BME280;55012;47.562;18.414;2023-10-13T03:10:08;99191.94;;;16.99;100.00
68193;BME280;55012;47.562;18.414;2023-10-13T03:12:40;99184.13;;;17.01;100.00
68193;BME280;55012;47.562;18.414;2023-10-13T03:15:07;99192.34;;;17.05;100.00
68193;BME280;55012;47.562;18.414;2023-10-13T03:17:55;99182.56;;;17.11;100.00
68193;BME280;55012;47.562;18.414;2023-10-13T03:20:24;99175.94;;;17.16;100.00
68193;BME280;55012;47.562;18.414;2023-10-13T03:22:56;99166.97;;;17.15;100.00
68193;BME280;55012;47.562;18.414;2023-10-13T03:25:22;99174.78;;;17.13;100.00
68193;BME280;55012;47.562;18.414;2023-10-13T03:28:08;99176.72;;;17.12;100.00
68193;BME280;55012;47.562;18.414;2023-10-13T03:30:37;99161.88;;;17.10;100.00
68193;BME280;55012;47.562;18.414;2023-10-13T03:33:06;99143.53;;;17.10;100.00
68193;BME280;55012;47.562;18.414;2023-10-13T03:35:34;99143.53;;;17.07;100.00
68193;BME280;55012;47.562;18.414;2023-10-13T03:38:04;99137.28;;;17.06;100.00
68193;BME280;55012;47.562;18.414;2023-10-13T03:40:36;99134.53;;;17.10;100.00
68193;BME280;55012;47.562;18.414;2023-10-13T03:43:02;99109.53;;;17.11;100.00
68193;BME280;55012;47.562;18.414;2023-10-13T03:45:33;99088.88;;;17.14;100.00
68193;BME280;55012;47.562;18.414;2023-10-13T03:50:40;99068.19;;;17.13;100.00
68193;BME280;55012;47.562;18.414;2023-10-13T03:53:13;99070.91;;;17.09;100.00
68193;BME280;55012;47.562;18.414;2023-10-13T03:55:39;99066.22;;;17.10;100.00
68193;BME280;55012;47.562;18.414;2023-10-13T03:58:05;99065.44;;;17.17;100.00
68193;BME280;55012;47.562;18.414;2023-10-13T04:00:32;99063.09;;;17.15;100.00
68193;BME280;55012;47.562;18.414;2023-10-13T04:02:57;99062.28;;;17.18;100.00
68193;BME280;55012;47.562;18.414;2023-10-13T04:05:34;99056.06;;;17.21;100.00
68193;BME280;55012;47.562;18.414;2023-10-13T04:08:12;99074.03;;;17.22;100.00
68193;BME280;55012;47.562;18.414;2023-10-13T04:10:54;99089.66;;;17.22;100.00
68193;BME280;55012;47.562;18.414;2023-10-13T04:13:21;99101.75;;;17.24;100.00
68193;BME280;55012;47.562;18.414;2023-10-13T04:16:07;99094.72;;;17.30;100.00
68193;BME280;55012;47.562;18.414;2023-10-13T04:18:53;99102.91;;;17.27;100.00
68193;BME280;55012;47.562;18.414;2023-10-13T04:21:21;99109.16;;;17.27;100.00
68193;BME280;55012;47.562;18.414;2023-10-13T04:24:09;99123.22;;;17.22;100.00
68193;BME280;55012;47.562;18.414;2023-10-13T04:26:44;99118.53;;;17.26;100.00
68193;BME280;55012;47.562;18.414;2023-10-13T04:29:28;99128.28;;;17.20;100.00
68193;BME280;55012;47.562;18.414;2023-10-13T04:32:15;99131.78;;;17.21;100.00
68193;BME280;55012;47.562;18.414;2023-10-13T04:34:44;99142.34;;;17.26;100.00
68193;BME280;55012;47.562;18.414;2023-10-13T04:37:12;99130.25;;;17.23;100.00
68193;BME280;55012;47.562;18.414;2023-10-13T04:39:58;99143.53;;;17.32;100.00
68193;BME280;55012;47.562;18.414;2023-10-13T04:42:37;99144.69;;;17.31;100.00
68193;BME280;55012;47.562;18.414;2023-10-13T04:45:25;99150.94;;;17.35;100.00
68193;BME280;55012;47.562;18.414;2023-10-13T04:48:01;99160.31;;;17.41;100.00
68193;BME280;55012;47.562;18.414;2023-10-13T04:50:49;99173.19;;;17.44;100.00
68193;BME280;55012;47.562;18.414;2023-10-13T04:53:24;99186.09;;;17.47;100.00
68193;BME280;55012;47.562;18.414;2023-10-13T04:56:00;99187.28;;;17.46;100.00
68193;BME280;55012;47.562;18.414;2023-10-13T04:58:31;99190.00;;;17.46;100.00
68193;BME280;55012;47.562;18.414;2023-10-13T05:01:31;99192.75;;;17.46;100.00
68193;BME280;55012;47.562;18.414;2023-10-13T05:04:15;99198.22;;;17.46;100.00
68193;BME280;55012;47.562;18.414;2023-10-13T05:06:47;99216.16;;;17.51;100.00
68193;BME280;55012;47.562;18.414;2023-10-13T05:09:32;99209.91;;;17.50;100.00
68193;BME280;55012;47.562;18.414;2023-10-13T05:12:26;99214.22;;;17.48;100.00
68193;BME280;55012;47.562;18.414;2023-10-13T05:15:10;99227.91;;;17.48;100.00
68193;BME280;55012;47.562;18.414;2023-10-13T05:17:54;99227.91;;;17.48;100.00
68193;BME280;55012;47.562;18.414;2023-10-13T05:20:38;99231.81;;;17.57;100.00
68193;BME280;55012;47.562;18.414;2023-10-13T05:23:22;99259.94;;;17.51;100.00
68193;BME280;55012;47.562;18.414;2023-10-13T05:26:06;99247.03;;;17.48;100.00
68193;BME280;55012;47.562;18.414;2023-10-13T05:28:49;99259.94;;;17.40;100.00
68193;BME280;55012;47.562;18.414;2023-10-13T05:31:33;99236.88;;;17.37;100.00
68193;BME280;55012;47.562;18.414;2023-10-13T05:34:17;99218.91;;;17.33;100.00
68193;BME280;55012;47.562;18.414;2023-10-13T05:37:01;99239.59;;;17.37;100.00
68193;BME280;55012;47.562;18.414;2023-10-13T05:39:45;99225.94;;;17.30;100.00
68193;BME280;55012;47.562;18.414;2023-10-13T05:42:29;99212.25;;;17.34;100.00
68193;BME280;55012;47.562;18.414;2023-10-13T05:45:13;99218.91;;;17.36;100.00
68193;BME280;55012;47.562;18.414;2023-10-13T05:47:41;99219.28;;;17.35;100.00
68193;BME280;55012;47.562;18.414;2023-10-13T05:50:08;99206.81;;;17.30;100.00
68193;BME280;55012;47.562;18.414;2023-10-13T05:52:49;99206.78;;;17.37;100.00
68193;BME280;55012;47.562;18.414;2023-10-13T05:55:22;99205.63;;;17.38;100.00
68193;BME280;55012;47.562;18.414;2023-10-13T05:58:07;99207.56;;;17.34;100.00
68193;BME280;55012;47.562;18.414;2023-10-13T06:00:53;99193.50;;;17.36;100.00
68193;BME280;55012;47.562;18.414;2023-10-13T06:03:37;99194.28;;;17.44;100.00
68193;BME280;55012;47.562;18.414;2023-10-13T06:06:21;99192.34;;;17.44;100.00
68193;BME280;55012;47.562;18.414;2023-10-13T06:09:05;99191.16;;;17.49;100.00
68193;BME280;55012;47.562;18.414;2023-10-13T06:11:49;99207.56;;;17.52;100.00
68193;BME280;55012;47.562;18.414;2023-10-13T06:14:33;99209.91;;;17.54;100.00
68193;BME280;55012;47.562;18.414;2023-10-13T06:17:17;99206.41;;;17.50;100.00
68193;BME280;55012;47.562;18.414;2023-10-13T06:20:00;99220.09;;;17.57;100.00
68193;BME280;55012;47.562;18.414;2023-10-13T06:22:47;99220.09;;;17.57;100.00
68193;BME280;55012;47.562;18.414;2023-10-13T06:25:31;99216.94;;;17.62;100.00
68193;BME280;55012;47.562;18.414;2023-10-13T06:28:17;99219.28;;;17.71;100.00
68193;BME280;55012;47.562;18.414;2023-10-13T06:31:03;99230.25;;;17.81;100.00
68193;BME280;55012;47.562;18.414;2023-10-13T06:33:31;99235.28;;;17.93;100.00
68193;BME280;55012;47.562;18.414;2023-10-13T06:36:00;99255.66;;;17.96;100.00
68193;BME280;55012;47.562;18.414;2023-10-13T06:38:26;99255.22;;;17.94;100.00
68193;BME280;55012;47.562;18.414;2023-10-13T06:40:57;99255.66;;;17.89;100.00
68193;BME280;55012;47.562;18.414;2023-10-13T06:43:23;99254.47;;;17.86;100.00
68193;BME280;55012;47.562;18.414;2023-10-13T06:45:49;99241.97;;;17.85;100.00
68193;BME280;55012;47.562;18.414;2023-10-13T06:48:27;99230.63;;;17.90;100.00
68193;BME280;55012;47.562;18.414;2023-10-13T06:50:53;99235.31;;;17.97;100.00
68193;BME280;55012;47.562;18.414;2023-10-13T06:53:21;99232.56;;;18.04;100.00
68193;BME280;55012;47.562;18.414;2023-10-13T06:55:47;99229.41;;;18.09;100.00
68193;BME280;55012;47.562;18.414;2023-10-13T06:58:15;99238.41;;;18.13;100.00
68193;BME280;55012;47.562;18.414;2023-10-13T07:00:42;99241.88;;;18.17;100.00
68193;BME280;55012;47.562;18.414;2023-10-13T07:03:24;99245.00;;;18.23;100.00
68193;BME280;55012;47.562;18.414;2023-10-13T07:05:50;99239.16;;;18.21;100.00
68193;BME280;55012;47.562;18.414;2023-10-13T07:08:17;99247.38;;;18.21;100.00
68193;BME280;55012;47.562;18.414;2023-10-13T07:10:52;99249.31;;;18.24;100.00
68193;BME280;55012;47.562;18.414;2023-10-13T07:13:28;99250.47;;;18.30;100.00
68193;BME280;55012;47.562;18.414;2023-10-13T07:15:54;99246.94;;;18.33;100.00
68193;BME280;55012;47.562;18.414;2023-10-13T07:18:30;99246.13;;;18.36;100.00
68193;BME280;55012;47.562;18.414;2023-10-13T07:21:03;99264.09;;;18.48;100.00
68193;BME280;55012;47.562;18.414;2023-10-13T07:23:38;99265.22;;;18.61;100.00
68193;BME280;55012;47.562;18.414;2023-10-13T07:26:05;99274.63;;;18.71;100.00
68193;BME280;55012;47.562;18.414;2023-10-13T07:28:34;99284.31;;;18.90;100.00
68193;BME280;55012;47.562;18.414;2023-10-13T07:31:14;99307.72;;;19.01;100.00
68193;BME280;55012;47.562;18.414;2023-10-13T07:33:40;99322.63;;;19.04;100.00
68193;BME280;55012;47.562;18.414;2023-10-13T07:36:08;99343.34;;;19.12;100.00
68193;BME280;55012;47.562;18.414;2023-10-13T07:38:46;99371.50;;;19.20;100.00
68193;BME280;55012;47.562;18.414;2023-10-13T07:41:24;99383.22;;;19.27;100.00
68193;BME280;55012;47.562;18.414;2023-10-13T07:43:55;99396.47;;;19.36;100.00
68193;BME280;55012;47.562;18.414;2023-10-13T07:46:22;99412.13;;;19.46;100.00
68193;BME280;55012;47.562;18.414;2023-10-13T07:48:55;99431.69;;;19.55;100.00
68193;BME280;55012;47.562;18.414;2023-10-13T07:51:33;99445.34;;;19.70;100.00
68193;BME280;55012;47.562;18.414;2023-10-13T07:54:06;99468.81;;;19.81;100.00
68193;BME280;55012;47.562;18.414;2023-10-13T07:56:36;99478.53;;;19.93;100.00
68193;BME280;55012;47.562;18.414;2023-10-13T07:59:05;99520.06;;;20.06;100.00
68193;BME280;55012;47.562;18.414;2023-10-13T08:01:31;99551.75;;;20.21;100.00
68193;BME280;55012;47.562;18.414;2023-10-13T08:03:57;99572.84;;;20.35;100.00
68193;BME280;55012;47.562;18.414;2023-10-13T08:06:52;99628.19;;;20.33;100.00
68193;BME280;55012;47.562;18.414;2023-10-13T08:09:27;99660.38;;;20.33;100.00
68193;BME280;55012;47.562;18.414;2023-10-13T08:11:56;99662.72;;;20.38;100.00
68193;BME280;55012;47.562;18.414;2023-10-13T08:14:21;99677.63;;;20.47;100.00
68193;BME280;55012;47.562;18.414;2023-10-13T08:16:54;99697.56;;;20.59;100.00
68193;BME280;55012;47.562;18.414;2023-10-13T08:19:28;99708.88;;;20.79;100.00
68193;BME280;55012;47.562;18.414;2023-10-13T08:22:05;99732.72;;;20.96;100.00
68193;BME280;55012;47.562;18.414;2023-10-13T08:24:43;99762.81;;;21.21;100.00
68193;BME280;55012;47.562;18.414;2023-10-13T08:27:08;99794.16;;;21.41;100.00
68193;BME280;55012;47.562;18.414;2023-10-13T08:29:46;99830.56;;;21.63;100.00
68193;BME280;55012;47.562;18.414;2023-10-13T08:32:24;99872.50;;;21.81;100.00
68193;BME280;55012;47.562;18.414;2023-10-13T08:35:00;99906.25;;;21.93;100.00
68193;BME280;55012;47.562;18.414;2023-10-13T08:37:32;99923.13;;;22.02;100.00
68193;BME280;55012;47.562;18.414;2023-10-13T08:40:07;99939.72;;;21.95;100.00
68193;BME280;55012;47.562;18.414;2023-10-13T08:42:39;99946.09;;;21.81;100.00
68193;BME280;55012;47.562;18.414;2023-10-13T08:45:15;99951.28;;;21.72;100.00
68193;BME280;55012;47.562;18.414;2023-10-13T08:48:08;99966.31;;;21.60;100.00
68193;BME280;55012;47.562;18.414;2023-10-13T08:56:05;99959.50;;;21.79;100.00
68193;BME280;55012;47.562;18.414;2023-10-13T09:01:27;99968.75;;;22.06;100.00
68193;BME280;55012;47.562;18.414;2023-10-13T09:04:14;100014.25;;;22.32;100.00
68193;BME280;55012;47.562;18.414;2023-10-13T09:06:53;100041.22;;;22.62;100.00
68193;BME280;55012;47.562;18.414;2023-10-13T09:09:28;100078.84;;;22.87;100.00
68193;BME280;55012;47.562;18.414;2023-10-13T09:12:18;100098.31;;;23.14;100.00
68193;BME280;55012;47.562;18.414;2023-10-13T09:14:53;100135.03;;;23.48;100.00
68193;BME280;55012;47.562;18.414;2023-10-13T09:17:30;100167.47;;;23.82;100.00
68193;BME280;55012;47.562;18.414;2023-10-13T09:20:03;100187.34;;;24.04;100.00
68193;BME280;55012;47.562;18.414;2023-10-13T09:22:54;100187.59;;;24.17;100.00
68193;BME280;55012;47.562;18.414;2023-10-13T09:25:37;100211.59;;;24.23;100.00
68193;BME280;55012;47.562;18.414;2023-10-13T09:28:14;100218.03;;;24.17;100.00
68193;BME280;55012;47.562;18.414;2023-10-13T09:30:50;100218.63;;;23.97;100.00
68193;BME280;55012;47.562;18.414;2023-10-13T09:33:24;100208.63;;;23.73;100.00
68193;BME280;55012;47.562;18.414;2023-10-13T09:36:05;100205.16;;;23.58;100.00
68193;BME280;55012;47.562;18.414;2023-10-13T09:38:38;100200.59;;;23.41;100.00
68193;BME280;55012;47.562;18.414;2023-10-13T09:41:07;100214.91;;;23.29;100.00
68193;BME280;55012;47.562;18.414;2023-10-13T09:43:52;100202.38;;;23.17;100.00
68193;BME280;55012;47.562;18.414;2023-10-13T09:46:26;100211.13;;;23.12;100.00
68193;BME280;55012;47.562;18.414;2023-10-13T09:49:13;100210.34;;;23.11;100.00
68193;BME280;55012;47.562;18.414;2023-10-13T09:51:48;100220.53;;;23.18;100.00
68193;BME280;55012;47.562;18.414;2023-10-13T09:54:21;100219.28;;;23.26;100.00
68193;BME280;55012;47.562;18.414;2023-10-13T09:56:56;100265.66;;;23.45;100.00
68193;BME280;55012;47.562;18.414;2023-10-13T09:59:57;100259.59;;;23.68;100.00
68193;BME280;55012;47.562;18.414;2023-10-13T10:02:21;100276.84;;;23.79;100.00
68193;BME280;55012;47.562;18.414;2023-10-13T10:04:54;100282.56;;;23.99;100.00
68193;BME280;55012;47.562;18.414;2023-10-13T10:07:32;100263.84;;;24.14;100.00
68193;BME280;55012;47.562;18.414;2023-10-13T10:10:00;100258.56;;;24.27;100.00
68193;BME280;55012;47.562;18.414;2023-10-13T10:12:47;100251.66;;;24.46;100.00
68193;BME280;55012;47.562;18.414;2023-10-13T10:18:00;100234.81;;;24.63;100.00
68193;BME280;55012;47.562;18.414;2023-10-13T10:20:29;100227.72;;;24.62;100.00
68193;BME280;55012;47.562;18.414;2023-10-13T10:23:05;100224.34;;;24.78;100.00
68193;BME280;55012;47.562;18.414;2023-10-13T10:25:35;100203.50;;;24.97;100.00
68193;BME280;55012;47.562;18.414;2023-10-13T10:28:07;100169.47;;;24.97;100.00
68193;BME280;55012;47.562;18.414;2023-10-13T10:30:35;100145.84;;;24.92;100.00
68193;BME280;55012;47.562;18.414;2023-10-13T10:33:04;100151.38;;;24.92;100.00
68193;BME280;55012;47.562;18.414;2023-10-13T10:35:57;100152.41;;;25.02;100.00
68193;BME280;55012;47.562;18.414;2023-10-13T10:38:25;100148.63;;;25.15;100.00
68193;BME280;55012;47.562;18.414;2023-10-13T10:40:58;100138.63;;;25.21;100.00
68193;BME280;55012;47.562;18.414;2023-10-13T10:46:27;100106.00;;;25.33;100.00
68193;BME280;55012;47.562;18.414;2023-10-13T10:48:56;100075.16;;;25.31;100.00
68193;BME280;55012;47.562;18.414;2023-10-13T10:51:26;100066.09;;;25.30;100.00
68193;BME280;55012;47.562;18.414;2023-10-13T10:53:57;100066.72;;;25.38;100.00
68193;BME280;55012;47.562;18.414;2023-10-13T10:56:24;100050.69;;;25.49;100.00
68193;BME280;55012;47.562;18.414;2023-10-13T10:58:58;100030.56;;;25.65;100.00
68193;BME280;55012;47.562;18.414;2023-10-13T11:01:25;100015.16;;;25.84;100.00
68193;BME280;55012;47.562;18.414;2023-10-13T11:04:00;100002.09;;;26.00;100.00
68193;BME280;55012;47.562;18.414;2023-10-13T11:06:54;99972.91;;;26.12;100.00
68193;BME280;55012;47.562;18.414;2023-10-13T11:09:32;99960.84;;;26.19;100.00
68193;BME280;55012;47.562;18.414;2023-10-13T11:14:43;99921.53;;;26.24;100.00
68193;BME280;55012;47.562;18.414;2023-10-13T11:17:22;99909.13;;;26.12;100.00
68193;BME280;55012;47.562;18.414;2023-10-13T11:20:13;99909.38;;;26.01;100.00
68193;BME280;55012;47.562;18.414;2023-10-13T11:22:48;99918.94;;;26.00;100.00
68193;BME280;55012;47.562;18.414;2023-10-13T11:25:29;99945.72;;;26.07;100.00
68193;BME280;55012;47.562;18.414;2023-10-13T11:27:56;99939.19;;;26.14;100.00
68193;BME280;55012;47.562;18.414;2023-10-13T11:30:24;99934.16;;;26.25;100.00
68193;BME280;55012;47.562;18.414;2023-10-13T11:33:08;99918.91;;;26.33;100.00
68193;BME280;55012;47.562;18.414;2023-10-13T11:35:35;99886.25;;;26.41;100.00
68193;BME280;55012;47.562;18.414;2023-10-13T11:38:20;99885.63;;;26.49;100.00
68193;BME280;55012;47.562;18.414;2023-10-13T11:40:59;99884.63;;;26.56;100.00
68193;BME280;55012;47.562;18.414;2023-10-13T11:46:13;99887.06;;;26.83;100.00
68193;BME280;55012;47.562;18.414;2023-10-13T11:48:41;99888.75;;;26.93;100.00
68193;BME280;55012;47.562;18.414;2023-10-13T11:51:09;99891.16;;;27.07;100.00
68193;BME280;55012;47.562;18.414;2023-10-13T11:53:42;99874.03;;;27.09;100.00
68193;BME280;55012;47.562;18.414;2023-10-13T11:56:08;99874.03;;;27.09;100.00
68193;BME280;55012;47.562;18.414;2023-10-13T11:58:38;99875.72;;;27.06;100.00
68193;BME280;55012;47.562;18.414;2023-10-13T12:01:04;99875.59;;;27.10;100.00
68193;BME280;55012;47.562;18.414;2023-10-13T12:03:47;99874.63;;;27.17;100.00
68193;BME280;55012;47.562;18.414;2023-10-13T12:06:33;99874.41;;;27.24;100.00
68193;BME280;55012;47.562;18.414;2023-10-13T12:11:39;99871.06;;;27.54;100.00
68193;BME280;55012;47.562;18.414;2023-10-13T12:14:10;99862.03;;;27.63;100.00
68193;BME280;55012;47.562;18.414;2023-10-13T12:16:49;99862.63;;;27.58;100.00
68193;BME280;55012;47.562;18.414;2023-10-13T12:19:25;99869.19;;;27.51;100.00
68193;BME280;55012;47.562;18.414;2023-10-13T12:21:56;99878.63;;;27.54;100.00
68193;BME280;55012;47.562;18.414;2023-10-13T12:24:23;99869.41;;;27.57;100.00
68193;BME280;55012;47.562;18.414;2023-10-13T12:27:04;99865.19;;;27.52;100.00
68193;BME280;55012;47.562;18.414;2023-10-13T12:29:48;99848.28;;;27.34;100.00
68193;BME280;55012;47.562;18.414;2023-10-13T12:32:14;99840.50;;;27.16;100.00
68193;BME280;55012;47.562;18.414;2023-10-13T12:34:40;99850.72;;;27.06;100.00
68193;BME280;55012;47.562;18.414;2023-10-13T12:37:25;99843.78;;;26.98;100.00
68193;BME280;55012;47.562;18.414;2023-10-13T12:42:47;99840.09;;;26.88;100.00
68193;BME280;55012;47.562;18.414;2023-10-13T12:45:31;99839.88;;;26.83;100.00
68193;BME280;55012;47.562;18.414;2023-10-13T12:48:15;99846.16;;;26.71;100.00
68193;BME280;55012;47.562;18.414;2023-10-13T12:51:02;99847.56;;;26.63;100.00
68193;BME280;55012;47.562;18.414;2023-10-13T12:53:51;99859.63;;;26.56;100.00
68193;BME280;55012;47.562;18.414;2023-10-13T12:56:17;99853.44;;;26.52;100.00
68193;BME280;55012;47.562;18.414;2023-10-13T12:58:43;99852.84;;;26.44;100.00
68193;BME280;55012;47.562;18.414;2023-10-13T13:01:22;99859.69;;;26.40;100.00
68193;BME280;55012;47.562;18.414;2023-10-13T13:03:48;99848.34;;;26.34;100.00
68193;BME280;55012;47.562;18.414;2023-10-13T13:06:22;99846.97;;;26.42;100.00
68193;BME280;55012;47.562;18.414;2023-10-13T13:08:55;99849.00;;;26.54;100.00
68193;BME280;55012;47.562;18.414;2023-10-13T13:11:21;99844.94;;;26.72;100.00
68193;BME280;55012;47.562;18.414;2023-10-13T13:13:47;99826.13;;;26.92;100.00
68193;BME280;55012;47.562;18.414;2023-10-13T13:16:13;99809.38;;;27.08;100.00
68193;BME280;55012;47.562;18.414;2023-10-13T13:18:39;99802.41;;;27.17;100.00
68193;BME280;55012;47.562;18.414;2023-10-13T13:21:05;99810.94;;;27.09;100.00
68193;BME280;55012;47.562;18.414;2023-10-13T13:23:37;99821.41;;;26.76;100.00
68193;BME280;55012;47.562;18.414;2023-10-13T13:26:02;99842.97;;;26.27;100.00
68193;BME280;55012;47.562;18.414;2023-10-13T13:28:34;99861.94;;;25.83;100.00
68193;BME280;55012;47.562;18.414;2023-10-13T13:31:03;99878.03;;;25.36;100.00
68193;BME280;55012;47.562;18.414;2023-10-13T13:33:33;99884.81;;;24.95;100.00
68193;BME280;55012;47.562;18.414;2023-10-13T13:36:07;99902.91;;;24.80;100.00
68193;BME280;55012;47.562;18.414;2023-10-13T13:38:32;99901.59;;;24.64;100.00
68193;BME280;55012;47.562;18.414;2023-10-13T13:41:01;99905.94;;;24.65;100.00